Aviation Digital Data Service (ADDS)

Output produced by METARs form (1216 UTC 26 March 2019)
found at http://www.aviationweather.gov/metar/data/
 
TAF HLLB 261100Z 2612/2712 28012KT 9999 FEW020 
     BECMG 2700/2702 VRB02KT 8000 SCT020
       
TAF HLTD 261100Z 2612/2712 VRB02KT CAVOK 
     BECMG 1622/1624 06010KT
       
TAF HLGT 261100Z 2612/2712 09010KT CAVOK 
     BECMG 2700/2702 VRB02KT
       
TAF HLKF 261100Z 2612/2712 35010KT CAVOK